Evanston, WY

4:08 PM MST on November 26, 2014 (GMT -0700)
Evanston-Uinta County Burns | Change Station
CLOSE
Current Station
Airport
Location: Evanston,
Elevation: 7142 ft
Nearby Weather Stations

Elev 7142 ft 41.27 °N, 111.03 °W | Updated 15 minutes ago

Clear
Clear
42 °F
Feels Like 34 °F
N
18
Wind Variable Wind from WSW

Today
High -- | Low -- °F
--% Chance of Precip.
Yesterday
High -- | Low -- °F
Precip. -- in
7:25 AM 4:57 PM
Waxing Crescent, 23% visible
Pressure 30.32 in
Visibility 10.0 miles
Clouds Clear
Windchill 34 °F
Dew Point 27 °F
Humidity 55%
Rainfall 0.00 in
Snow Depth Not available.
UV 1 out of 12
Pollen .10 out of 12
Air Quality Not available.
Flu Activity Not available.
METAR KEVW 262253Z AUTO 24016KT 10SM CLR 06/M03 A3038 RMK AO2 SLP267 T00561028

More Conditions Fewer Conditions

Pressure 30.32 in
Visibility 10.0 miles
Clouds Clear
Windchill 34 °F
Dew Point 27 °F
Humidity 55%
Rainfall 0.00 in
Snow Depth Not available.
UV 1 out of 12
Pollen .10 out of 12
Air Quality Not available.
Flu Activity Not available.
METAR KEVW 262253Z AUTO 24016KT 10SM CLR 06/M03 A3038 RMK AO2 SLP267 T00561028

More Conditions Fewer Conditions

10-Day Weather Forecast

Almanac

Astronomy

Nov. 26, 2014 Rise Set
Actual Time
Civil Twilight
Nautical Twilight
Astronomical Twilight
Moon
Length of Visible Light
Length of Day
Tomorrow will be .
, % of the Moon is Illuminated

Today's Extremes

State Highs State Lows

Community

WunderPhotos

Upload Photos

1,773,913 photos uploaded!

WunderBlogs® & News

Nearby

Air Quality

  Air Quality AQ Index Pollutant
Not available.

Snow Depth

Station Depth Elevation

Earthquake Activity

City Distance Mag. Time & Date
Minimum magnitude displayed is 2.5.

Coastal Water Temperatures

Place Temperature

Nearby Weather Stations